createdAt,value
2022-11-27T00:00:55.374Z,12.13
2022-11-27T00:01:57.076Z,13.57
2022-11-27T00:02:58.836Z,14.35
2022-11-27T00:04:01.028Z,11.60
2022-11-27T00:05:02.791Z,10.98
2022-11-27T00:06:04.581Z,15.30
2022-11-27T00:07:06.235Z,12.95
2022-11-27T00:08:07.863Z,17.33
2022-11-27T00:09:13.646Z,15.45
2022-11-27T00:10:15.293Z,16.00
2022-11-27T00:11:22.784Z,16.05
2022-11-27T00:12:24.485Z,15.65
2022-11-27T00:13:26.149Z,13.10
2022-11-27T00:14:28.155Z,13.38
2022-11-27T00:15:29.879Z,13.32
2022-11-27T00:16:31.673Z,14.35
2022-11-27T00:17:33.393Z,13.40
2022-11-27T00:18:35.820Z,13.52
2022-11-27T00:19:37.775Z,14.43
2022-11-27T00:20:40.030Z,14.52
2022-11-27T00:21:41.772Z,14.55
2022-11-27T00:22:43.421Z,11.90
2022-11-27T00:23:45.717Z,16.02
2022-11-27T00:24:47.516Z,16.30
2022-11-27T00:25:52.959Z,13.02
2022-11-27T00:26:54.645Z,14.45
2022-11-27T00:27:56.701Z,13.35
2022-11-27T00:28:58.524Z,15.90
2022-11-27T00:30:00.208Z,12.82
2022-11-27T00:31:04.630Z,14.57
2022-11-27T00:32:08.311Z,18.67
2022-11-27T00:33:09.985Z,16.10
2022-11-27T00:34:11.905Z,15.27
2022-11-27T00:35:13.785Z,15.60
2022-11-27T00:36:16.777Z,16.42
2022-11-27T00:37:18.435Z,15.70
2022-11-27T00:38:20.648Z,13.77
2022-11-27T00:39:22.298Z,15.18
2022-11-27T00:40:24.023Z,14.95
2022-11-27T00:41:27.977Z,14.35
2022-11-27T00:42:29.698Z,12.82
2022-11-27T00:43:31.421Z,12.75
2022-11-27T00:44:38.735Z,15.93
2022-11-27T00:45:40.492Z,15.95
2022-11-27T00:46:42.329Z,16.00
2022-11-27T00:47:44.031Z,14.10
2022-11-27T00:48:46.248Z,13.40
2022-11-27T00:49:47.893Z,15.55
2022-11-27T00:50:49.585Z,18.65
2022-11-27T00:51:51.273Z,16.90
2022-11-27T00:52:52.943Z,16.85
2022-11-27T00:53:55.338Z,15.75
2022-11-27T00:54:56.973Z,13.18
2022-11-27T00:55:59.501Z,15.57
2022-11-27T00:57:01.165Z,16.08
2022-11-27T00:58:02.801Z,14.32
2022-11-27T00:59:06.207Z,15.27
2022-11-27T01:00:08.439Z,15.45
2022-11-27T01:01:20.648Z,13.80
2022-11-27T01:02:22.683Z,14.85
2022-11-27T01:03:24.987Z,14.43
2022-11-27T01:04:26.639Z,13.98
2022-11-27T01:05:28.301Z,14.30
2022-11-27T01:06:30.652Z,17.25
2022-11-27T01:07:32.326Z,16.42
2022-11-27T01:08:34.865Z,14.73
2022-11-27T01:09:36.553Z,15.85
2022-11-27T01:10:38.232Z,17.25
2022-11-27T01:11:40.838Z,15.60
2022-11-27T01:12:42.504Z,14.48
2022-11-27T01:13:44.770Z,17.45
2022-11-27T01:14:46.464Z,16.88
2022-11-27T01:16:09.338Z,13.27
2022-11-27T01:17:11.267Z,15.15
2022-11-27T01:18:12.984Z,16.17
2022-11-27T01:19:15.394Z,15.40
2022-11-27T01:20:17.178Z,18.17
2022-11-27T01:21:21.016Z,16.58
2022-11-27T01:22:22.833Z,17.13
2022-11-27T01:23:24.690Z,16.27
2022-11-27T01:24:26.346Z,17.50
2022-11-27T01:25:28.040Z,20.05
2022-11-27T01:26:30.098Z,19.50
2022-11-27T01:27:31.726Z,15.93
2022-11-27T01:28:34.568Z,16.38
2022-11-27T01:29:36.362Z,20.15
2022-11-27T01:30:39.081Z,14.82
2022-11-27T01:31:41.307Z,16.88
2022-11-27T01:32:43.040Z,12.77
2022-11-27T01:33:46.001Z,14.55
2022-11-27T01:34:47.666Z,13.95
2022-11-27T01:36:03.714Z,16.05
2022-11-27T01:37:05.368Z,14.65
2022-11-27T01:38:07.127Z,14.88
2022-11-27T01:39:20.815Z,15.30
2022-11-27T01:40:23.370Z,15.25
2022-11-27T01:41:28.294Z,17.30
2022-11-27T01:42:29.990Z,13.52
2022-11-27T01:43:50.665Z,14.35
2022-11-27T01:44:55.205Z,15.03
2022-11-27T01:45:56.996Z,13.88
2022-11-27T01:47:14.866Z,16.38
2022-11-27T01:48:16.590Z,13.82
2022-11-27T01:49:33.217Z,12.50
2022-11-27T01:50:38.596Z,15.65
2022-11-27T01:51:46.258Z,14.88
2022-11-27T01:52:51.476Z,15.00
2022-11-27T01:53:54.185Z,16.17
2022-11-27T01:55:05.582Z,15.68
2022-11-27T01:57:23.882Z,14.30
2022-11-27T01:58:28.881Z,13.40
2022-11-27T01:59:30.776Z,13.43
2022-11-27T02:00:33.234Z,14.55
2022-11-27T02:01:35.072Z,12.80
2022-11-27T02:02:36.838Z,13.85
2022-11-27T02:03:38.722Z,12.02
2022-11-27T02:04:40.640Z,14.05
2022-11-27T02:05:42.569Z,13.25
2022-11-27T02:06:44.256Z,13.05
2022-11-27T02:07:47.740Z,12.02
2022-11-27T02:08:49.470Z,14.90
2022-11-27T02:09:51.300Z,14.45
2022-11-27T02:11:15.648Z,13.00
2022-11-27T02:12:28.353Z,15.13
2022-11-27T02:13:42.486Z,18.55
2022-11-27T02:14:54.958Z,16.10
2022-11-27T02:16:08.598Z,15.98
2022-11-27T02:17:28.997Z,18.20
2022-11-27T02:18:37.747Z,16.00
2022-11-27T02:19:51.294Z,17.75
2022-11-27T02:21:05.042Z,14.02
2022-11-27T02:22:36.262Z,16.85
2022-11-27T02:23:56.202Z,16.13
2022-11-27T02:25:23.908Z,22.70
2022-11-27T02:26:50.445Z,20.02
2022-11-27T02:27:55.076Z,22.60
2022-11-27T02:29:06.937Z,22.73
2022-11-27T02:30:08.994Z,24.23
2022-11-27T02:31:22.192Z,26.73
2022-11-27T02:32:44.133Z,25.83
2022-11-27T02:33:52.360Z,26.70
2022-11-27T02:35:09.357Z,25.10
2022-11-27T02:36:18.994Z,25.98
2022-11-27T02:37:33.008Z,20.50
2022-11-27T02:39:10.721Z,19.67
2022-11-27T02:40:31.853Z,22.52
2022-11-27T02:42:12.334Z,24.05
2022-11-27T02:43:42.353Z,25.75
2022-11-27T02:44:53.084Z,23.30
2022-11-27T02:45:57.854Z,22.65
2022-11-27T02:47:00.575Z,23.30
2022-11-27T02:48:04.347Z,20.90
2022-11-27T02:49:11.130Z,23.52
2022-11-27T02:50:18.337Z,27.67
2022-11-27T02:51:23.778Z,23.98
2022-11-27T02:52:28.199Z,23.60
2022-11-27T02:53:52.329Z,24.27
2022-11-27T02:54:58.537Z,22.05
2022-11-27T02:56:02.965Z,24.05
2022-11-27T02:57:06.621Z,21.35
2022-11-27T02:58:12.990Z,21.15
2022-11-27T02:59:17.052Z,21.77
2022-11-27T03:00:19.223Z,22.23
2022-11-27T03:01:22.747Z,19.98
2022-11-27T03:02:33.011Z,24.15
2022-11-27T03:03:42.091Z,22.10
2022-11-27T03:04:51.685Z,20.70
2022-11-27T03:06:00.102Z,20.08
2022-11-27T03:07:07.548Z,23.08
2022-11-27T03:08:44.173Z,22.73
2022-11-27T03:09:51.201Z,23.98
2022-11-27T03:11:02.143Z,21.77
2022-11-27T03:12:06.621Z,23.88
2022-11-27T03:13:08.476Z,22.65
2022-11-27T03:14:11.618Z,23.38
2022-11-27T03:15:13.728Z,26.45
2022-11-27T03:16:28.368Z,28.38
2022-11-27T03:17:32.941Z,24.73
2022-11-27T03:18:39.383Z,27.23
2022-11-27T03:20:19.332Z,31.25
2022-11-27T03:21:34.327Z,26.80
2022-11-27T03:22:36.211Z,25.05
2022-11-27T03:23:38.732Z,25.63
2022-11-27T03:24:40.997Z,26.92
2022-11-27T03:25:42.847Z,25.13
2022-11-27T03:26:44.748Z,26.17
2022-11-27T03:28:09.539Z,19.27
2022-11-27T03:29:16.886Z,23.48
2022-11-27T03:30:18.627Z,20.60
2022-11-27T03:31:21.147Z,20.52
2022-11-27T03:32:24.052Z,22.65
2022-11-27T03:33:25.923Z,26.15
2022-11-27T03:34:29.052Z,19.65
2022-11-27T03:35:31.942Z,20.58
2022-11-27T03:36:33.665Z,21.92
2022-11-27T03:37:36.275Z,27.02
2022-11-27T03:38:38.041Z,29.50
2022-11-27T03:39:40.092Z,27.00
2022-11-27T03:41:25.749Z,26.15
2022-11-27T03:42:58.561Z,31.27
2022-11-27T03:44:28.026Z,24.23
2022-11-27T03:45:43.694Z,24.05
2022-11-27T03:47:03.633Z,27.35
2022-11-27T03:48:21.882Z,25.85
2022-11-27T03:49:29.429Z,21.10
2022-11-27T03:50:41.756Z,20.50
2022-11-27T03:51:58.643Z,22.20
2022-11-27T03:53:16.786Z,20.42
2022-11-27T03:54:53.464Z,21.38
2022-11-27T03:56:16.219Z,18.83
2022-11-27T03:57:20.261Z,20.88
2022-11-27T03:58:31.123Z,20.02
2022-11-27T03:59:40.257Z,20.58
2022-11-27T04:00:44.426Z,20.10
2022-11-27T04:01:47.021Z,18.42
2022-11-27T04:02:53.265Z,20.10
2022-11-27T04:03:54.961Z,19.00
2022-11-27T04:04:56.622Z,18.98
2022-11-27T04:05:58.440Z,16.50
2022-11-27T04:07:00.159Z,17.98
2022-11-27T04:08:01.858Z,21.30
2022-11-27T04:09:04.483Z,19.67
2022-11-27T04:10:07.042Z,19.55
2022-11-27T04:11:09.186Z,20.88
2022-11-27T04:12:10.876Z,21.17
2022-11-27T04:13:12.677Z,20.30
2022-11-27T04:14:14.330Z,18.45
2022-11-27T04:15:16.047Z,18.38
2022-11-27T04:16:18.556Z,17.77
2022-11-27T04:17:20.348Z,18.27
2022-11-27T04:18:22.014Z,19.70
2022-11-27T04:19:23.756Z,22.15
2022-11-27T04:20:25.473Z,19.98
2022-11-27T04:21:27.165Z,19.52
2022-11-27T04:22:28.815Z,20.10
2022-11-27T04:23:30.519Z,16.42
2022-11-27T04:24:32.167Z,20.23
2022-11-27T04:25:33.894Z,18.83
2022-11-27T04:26:35.551Z,20.08
2022-11-27T04:27:37.239Z,18.95
2022-11-27T04:28:38.894Z,20.00
2022-11-27T04:29:40.727Z,18.98
2022-11-27T04:30:42.407Z,18.45
2022-11-27T04:31:44.086Z,19.08
2022-11-27T04:32:45.816Z,19.48
2022-11-27T04:33:47.489Z,19.00
2022-11-27T04:34:49.182Z,18.85
2022-11-27T04:35:51.827Z,18.30
2022-11-27T04:36:53.563Z,17.83
2022-11-27T04:37:58.012Z,21.20
2022-11-27T04:38:59.652Z,19.63
2022-11-27T04:40:01.452Z,19.08
2022-11-27T04:41:03.154Z,15.63
2022-11-27T04:42:05.050Z,19.42
2022-11-27T04:43:06.814Z,19.90
2022-11-27T04:44:08.522Z,20.58
2022-11-27T04:45:10.711Z,18.92
2022-11-27T04:46:12.420Z,20.20
2022-11-27T04:47:14.296Z,17.83
2022-11-27T04:48:15.997Z,17.70
2022-11-27T04:49:17.648Z,19.05
2022-11-27T04:50:19.365Z,17.75
2022-11-27T04:51:21.014Z,18.95
2022-11-27T04:52:22.752Z,19.02
2022-11-27T04:53:24.406Z,19.63
2022-11-27T04:54:26.229Z,18.75
2022-11-27T04:55:27.965Z,17.58
2022-11-27T04:56:29.679Z,18.17
2022-11-27T04:57:31.340Z,17.70
2022-11-27T04:58:33.024Z,18.92
2022-11-27T04:59:34.713Z,18.13
2022-11-27T05:00:36.488Z,18.02
2022-11-27T05:01:38.230Z,22.77
2022-11-27T05:02:40.382Z,21.95
2022-11-27T05:03:42.226Z,21.33
2022-11-27T05:04:43.941Z,21.63
2022-11-27T05:05:45.676Z,21.42
2022-11-27T05:06:47.327Z,21.02
2022-11-27T05:07:49.178Z,25.75
2022-11-27T05:08:50.984Z,22.70
2022-11-27T05:09:52.686Z,28.67
2022-11-27T05:11:04.476Z,20.75
2022-11-27T05:12:06.464Z,23.75
2022-11-27T05:13:08.387Z,23.60
2022-11-27T05:14:16.767Z,25.00
2022-11-27T05:15:18.517Z,24.92
2022-11-27T05:16:20.208Z,26.15
2022-11-27T05:17:21.950Z,26.08
2022-11-27T05:18:24.215Z,27.05
2022-11-27T05:19:28.446Z,26.42
2022-11-27T05:20:30.103Z,24.70
2022-11-27T05:21:31.807Z,24.05
2022-11-27T05:22:33.546Z,25.23
2022-11-27T05:23:35.620Z,24.80
2022-11-27T05:24:37.558Z,26.25
2022-11-27T05:25:39.737Z,25.58
2022-11-27T05:26:42.326Z,24.08
2022-11-27T05:27:43.991Z,29.33
2022-11-27T05:28:45.672Z,29.08
2022-11-27T05:29:47.345Z,33.20
2022-11-27T05:30:49.180Z,30.88
2022-11-27T05:31:51.104Z,28.75
2022-11-27T05:32:52.896Z,29.27
2022-11-27T05:33:54.929Z,24.42
2022-11-27T05:34:56.587Z,28.42
2022-11-27T05:35:58.298Z,32.05
2022-11-27T05:36:59.962Z,37.75
2022-11-27T05:38:01.688Z,33.08
2022-11-27T05:39:06.572Z,32.15
2022-11-27T05:40:08.653Z,31.38
2022-11-27T05:41:10.866Z,32.58
2022-11-27T05:42:12.547Z,35.10
2022-11-27T05:43:14.232Z,33.58
2022-11-27T05:44:16.166Z,32.25
2022-11-27T05:45:17.813Z,35.47
2022-11-27T05:46:23.362Z,33.05
2022-11-27T05:47:25.279Z,27.95
2022-11-27T05:48:26.954Z,34.88
2022-11-27T05:49:28.672Z,29.80
2022-11-27T05:50:30.480Z,32.42
2022-11-27T05:51:32.427Z,28.48
2022-11-27T05:52:34.160Z,35.47
2022-11-27T05:53:36.148Z,48.05
2022-11-27T05:54:37.867Z,41.72
2022-11-27T05:55:39.807Z,44.90
2022-11-27T05:56:41.444Z,45.33
2022-11-27T05:57:43.083Z,46.17
2022-11-27T05:58:47.662Z,46.78
2022-11-27T05:59:49.343Z,54.22
2022-11-27T06:00:51.245Z,54.00
2022-11-27T06:01:53.031Z,44.78
2022-11-27T06:02:55.993Z,46.42
2022-11-27T06:03:57.729Z,43.83
2022-11-27T06:04:59.387Z,40.42
2022-11-27T06:06:13.663Z,39.08
2022-11-27T06:07:15.407Z,63.13
2022-11-27T06:08:17.223Z,141.63
2022-11-27T06:09:18.898Z,156.77
2022-11-27T06:10:20.555Z,169.68
2022-11-27T06:11:23.312Z,185.50
2022-11-27T06:12:25.285Z,170.50
2022-11-27T06:13:26.938Z,166.05
2022-11-27T06:14:28.816Z,170.93
2022-11-27T06:15:30.579Z,222.75
2022-11-27T06:16:32.252Z,239.32
2022-11-27T06:17:33.986Z,229.98
2022-11-27T06:18:36.013Z,222.13
2022-11-27T06:19:37.831Z,205.68
2022-11-27T06:20:43.666Z,186.68
2022-11-27T06:21:46.735Z,159.93
2022-11-27T06:22:48.516Z,170.38
2022-11-27T06:23:54.526Z,184.02
2022-11-27T06:24:56.187Z,179.48
2022-11-27T06:25:57.841Z,166.13
2022-11-27T06:26:59.536Z,120.72
2022-11-27T06:28:01.226Z,105.88
2022-11-27T06:29:03.021Z,100.47
2022-11-27T06:30:06.130Z,90.45
2022-11-27T06:31:17.726Z,79.43
2022-11-27T06:32:20.021Z,83.85
2022-11-27T06:33:21.654Z,96.10
2022-11-27T06:34:23.325Z,105.15
2022-11-27T06:35:25.224Z,72.57
2022-11-27T06:36:30.180Z,70.43
2022-11-27T06:37:38.649Z,101.30
2022-11-27T06:38:40.452Z,83.80
2022-11-27T06:39:42.177Z,76.78
2022-11-27T06:40:43.850Z,71.78
2022-11-27T06:41:45.530Z,111.80
2022-11-27T06:42:47.214Z,92.10
2022-11-27T06:43:48.879Z,74.70
2022-11-27T06:44:50.533Z,64.97
2022-11-27T06:45:57.238Z,47.03
2022-11-27T06:46:58.944Z,35.58
2022-11-27T06:48:00.588Z,33.15
2022-11-27T06:49:02.724Z,23.23
2022-11-27T06:50:05.333Z,23.48
2022-11-27T06:51:08.446Z,26.50
2022-11-27T06:52:10.215Z,28.50
2022-11-27T06:53:11.872Z,23.88
2022-11-27T06:54:13.520Z,19.75
2022-11-27T06:55:15.244Z,25.50
2022-11-27T06:56:19.381Z,23.63
2022-11-27T06:57:21.046Z,19.02
2022-11-27T06:58:27.788Z,18.10
2022-11-27T06:59:32.548Z,18.52
2022-11-27T07:00:34.252Z,23.17
2022-11-27T07:01:36.250Z,18.27
2022-11-27T07:02:38.193Z,20.25
2022-11-27T07:03:40.506Z,19.52
2022-11-27T07:04:42.474Z,19.83
2022-11-27T07:05:44.331Z,21.05
2022-11-27T07:06:46.009Z,19.00
2022-11-27T07:07:47.703Z,22.58
2022-11-27T07:08:49.439Z,19.85
2022-11-27T07:09:51.082Z,19.70
2022-11-27T07:10:52.776Z,18.80
2022-11-27T07:11:54.606Z,18.08
2022-11-27T07:12:56.335Z,20.10
2022-11-27T07:14:01.054Z,20.58
2022-11-27T07:15:04.336Z,18.33
2022-11-27T07:16:09.247Z,22.25
2022-11-27T07:17:10.910Z,19.45
2022-11-27T07:18:12.570Z,21.92
2022-11-27T07:19:14.844Z,18.80
2022-11-27T07:20:16.569Z,20.92
2022-11-27T07:21:18.239Z,20.65
2022-11-27T07:22:19.887Z,24.90
2022-11-27T07:23:21.942Z,24.30
2022-11-27T07:24:23.667Z,35.55
2022-11-27T07:25:25.329Z,54.38
2022-11-27T07:26:29.579Z,44.83
2022-11-27T07:27:31.230Z,26.83
2022-11-27T07:28:32.918Z,23.23
2022-11-27T07:29:34.577Z,23.73
2022-11-27T07:30:36.308Z,25.65
2022-11-27T07:31:38.020Z,24.38
2022-11-27T07:32:39.746Z,23.08
2022-11-27T07:33:41.440Z,22.10
2022-11-27T07:34:43.144Z,25.92
2022-11-27T07:35:44.810Z,24.80
2022-11-27T07:36:46.540Z,19.63
2022-11-27T07:37:48.194Z,22.23
2022-11-27T07:38:50.654Z,22.67
2022-11-27T07:40:02.664Z,22.63
2022-11-27T07:41:06.068Z,21.70
2022-11-27T07:43:30.305Z,26.48
2022-11-27T07:44:31.966Z,20.60
2022-11-27T07:45:33.754Z,21.70
2022-11-27T07:46:35.443Z,21.75
2022-11-27T07:47:37.789Z,18.52
2022-11-27T07:48:39.938Z,17.77
2022-11-27T07:49:41.617Z,22.75
2022-11-27T07:50:43.301Z,23.85
2022-11-27T07:51:45.005Z,23.73
2022-11-27T07:52:46.765Z,20.88
2022-11-27T07:53:51.709Z,21.38
2022-11-27T07:54:53.823Z,20.40
2022-11-27T07:56:00.263Z,17.95
2022-11-27T07:57:02.372Z,22.80
2022-11-27T07:58:04.073Z,20.73
2022-11-27T07:59:05.780Z,25.77
2022-11-27T08:00:08.204Z,27.42
2022-11-27T08:01:16.484Z,21.40
2022-11-27T08:02:18.218Z,23.52
2022-11-27T08:03:19.931Z,20.42
2022-11-27T08:04:21.732Z,23.88
2022-11-27T08:05:23.490Z,26.55
2022-11-27T08:06:26.972Z,21.88
2022-11-27T08:07:29.470Z,23.15
2022-11-27T08:08:31.340Z,18.05
2022-11-27T08:09:33.032Z,22.50
2022-11-27T08:10:36.014Z,23.38
2022-11-27T08:11:39.684Z,20.02
2022-11-27T08:12:41.342Z,18.60
2022-11-27T08:13:43.245Z,20.08
2022-11-27T08:14:44.908Z,25.17
2022-11-27T08:15:47.442Z,21.42
2022-11-27T08:16:49.131Z,21.77
2022-11-27T08:17:50.868Z,21.90
2022-11-27T08:18:53.037Z,23.20
2022-11-27T08:19:54.694Z,20.73
2022-11-27T08:20:56.394Z,20.88
2022-11-27T08:21:58.530Z,19.92
2022-11-27T08:23:03.003Z,18.33
2022-11-27T08:24:05.335Z,18.27
2022-11-27T08:25:07.561Z,19.85
2022-11-27T08:26:10.690Z,21.55
2022-11-27T08:27:12.412Z,19.63
2022-11-27T08:28:14.047Z,16.50
2022-11-27T08:29:15.756Z,18.85
2022-11-27T08:30:17.743Z,17.38
2022-11-27T08:31:21.009Z,17.90
2022-11-27T08:32:22.748Z,22.25
2022-11-27T08:33:25.028Z,18.38
2022-11-27T08:34:29.743Z,15.85
2022-11-27T08:35:31.389Z,19.33
2022-11-27T08:36:33.478Z,19.70
2022-11-27T08:37:35.708Z,21.52
2022-11-27T08:38:37.422Z,21.55
2022-11-27T08:39:39.125Z,20.40
2022-11-27T08:40:40.805Z,19.38
2022-11-27T08:41:42.474Z,17.90
2022-11-27T08:42:44.141Z,21.98
2022-11-27T08:43:45.860Z,18.52
2022-11-27T08:44:47.536Z,20.77
2022-11-27T08:45:49.801Z,20.70
2022-11-27T08:46:51.628Z,24.83
2022-11-27T08:47:53.348Z,19.23
2022-11-27T08:48:55.112Z,20.67
2022-11-27T08:49:56.800Z,17.98
2022-11-27T08:50:58.455Z,18.52
2022-11-27T08:52:00.113Z,23.92
2022-11-27T08:53:01.797Z,19.20
2022-11-27T08:54:03.914Z,17.90
2022-11-27T08:55:06.110Z,19.95
2022-11-27T08:56:19.799Z,22.08
2022-11-27T08:57:21.863Z,21.33
2022-11-27T08:58:23.502Z,19.15
2022-11-27T08:59:25.257Z,21.67
2022-11-27T09:00:28.305Z,21.30
2022-11-27T09:01:32.868Z,24.98
2022-11-27T09:02:34.822Z,22.15
2022-11-27T09:03:36.943Z,22.42
2022-11-27T09:04:38.857Z,21.38
2022-11-27T09:05:44.902Z,22.80
2022-11-27T09:06:47.478Z,21.95
2022-11-27T09:07:51.117Z,25.85
2022-11-27T09:08:53.038Z,19.38
2022-11-27T09:09:54.770Z,20.00
2022-11-27T09:11:01.281Z,21.65
2022-11-27T09:12:03.022Z,21.08
2022-11-27T09:13:04.672Z,19.42
2022-11-27T09:14:06.618Z,19.60
2022-11-27T09:15:08.704Z,19.58
2022-11-27T09:16:13.585Z,23.10
2022-11-27T09:17:15.316Z,22.02
2022-11-27T09:18:16.973Z,26.13
2022-11-27T09:19:18.735Z,23.25
2022-11-27T09:20:20.424Z,20.13
2022-11-27T09:21:24.379Z,21.15
2022-11-27T09:22:26.079Z,21.42
2022-11-27T09:23:28.427Z,22.15
2022-11-27T09:24:30.752Z,24.88
2022-11-27T09:25:32.405Z,21.50
2022-11-27T09:26:34.092Z,23.60
2022-11-27T09:27:37.342Z,22.63
2022-11-27T09:28:40.742Z,23.63
2022-11-27T09:29:42.400Z,22.65
2022-11-27T09:30:44.127Z,26.63
2022-11-27T09:31:45.997Z,21.00
2022-11-27T09:32:47.702Z,26.48
2022-11-27T09:33:49.760Z,24.42
2022-11-27T09:34:54.327Z,21.48
2022-11-27T09:35:56.118Z,25.60
2022-11-27T09:36:57.797Z,26.98
2022-11-27T09:37:59.469Z,20.17
2022-11-27T09:39:01.264Z,24.02
2022-11-27T09:40:03.560Z,22.63
2022-11-27T09:41:36.395Z,20.98
2022-11-27T09:42:47.989Z,23.83
2022-11-27T09:44:05.186Z,20.50
2022-11-27T09:45:13.380Z,22.48
2022-11-27T09:46:25.171Z,19.17
2022-11-27T09:47:48.798Z,24.08
2022-11-27T09:48:52.618Z,22.38
2022-11-27T09:50:06.236Z,20.83
2022-11-27T09:51:20.993Z,19.33
2022-11-27T09:52:43.076Z,22.27
2022-11-27T09:53:49.880Z,23.77
2022-11-27T09:55:02.113Z,19.00
2022-11-27T09:56:09.064Z,19.52
2022-11-27T09:57:28.542Z,18.55
2022-11-27T09:58:40.406Z,21.40
2022-11-27T09:59:49.126Z,19.35
2022-11-27T10:00:50.798Z,24.40
2022-11-27T10:01:52.609Z,23.38
2022-11-27T10:02:54.622Z,24.25
2022-11-27T10:03:56.645Z,21.52
2022-11-27T10:05:15.962Z,23.05
2022-11-27T10:06:28.662Z,19.77
2022-11-27T10:07:51.432Z,21.70
2022-11-27T10:09:25.771Z,16.42
2022-11-27T10:10:30.181Z,22.52
2022-11-27T10:11:35.949Z,19.05
2022-11-27T10:13:04.327Z,20.95
2022-11-27T10:14:26.864Z,20.20
2022-11-27T10:16:01.521Z,23.35
2022-11-27T10:17:12.559Z,19.67
2022-11-27T10:18:48.091Z,20.15
2022-11-27T10:19:58.670Z,24.15
2022-11-27T10:21:25.969Z,25.70
2022-11-27T10:22:45.957Z,23.15
2022-11-27T10:24:03.216Z,26.77
2022-11-27T10:25:45.957Z,24.70
2022-11-27T10:26:49.123Z,21.88
2022-11-27T10:28:02.638Z,24.05
2022-11-27T10:29:10.015Z,20.85
2022-11-27T10:30:20.859Z,24.27
2022-11-27T10:31:37.286Z,23.30
2022-11-27T10:32:56.070Z,22.80
2022-11-27T10:34:02.876Z,20.75
2022-11-27T10:35:20.040Z,25.33
2022-11-27T10:36:33.959Z,21.63
2022-11-27T10:37:41.121Z,21.25
2022-11-27T10:38:44.187Z,24.25
2022-11-27T10:39:54.269Z,23.48
2022-11-27T10:41:09.752Z,20.30
2022-11-27T10:42:26.108Z,17.85
2022-11-27T10:43:27.803Z,19.27
2022-11-27T10:44:39.084Z,26.55
2022-11-27T10:45:48.969Z,31.92
2022-11-27T10:46:55.384Z,23.88
2022-11-27T10:47:57.080Z,24.60
2022-11-27T10:48:58.827Z,20.60
2022-11-27T10:50:00.616Z,21.60
2022-11-27T10:51:02.299Z,22.60
2022-11-27T10:52:04.055Z,18.73
2022-11-27T10:53:14.731Z,22.00
2022-11-27T10:54:27.970Z,18.55
2022-11-27T10:56:06.783Z,23.60
2022-11-27T10:57:36.103Z,21.10
2022-11-27T10:59:00.716Z,23.67
2022-11-27T11:00:08.269Z,20.95
2022-11-27T11:01:12.880Z,18.15
2022-11-27T11:02:34.093Z,18.13
2022-11-27T11:03:35.941Z,24.20
2022-11-27T11:04:38.909Z,18.00
2022-11-27T11:06:11.663Z,18.33
2022-11-27T11:07:02.644Z,18.65
2022-11-27T11:08:14.551Z,19.20
2022-11-27T11:09:23.163Z,19.25
2022-11-27T11:10:43.753Z,21.45
2022-11-27T11:11:45.680Z,18.15
2022-11-27T11:12:47.337Z,19.15
2022-11-27T11:13:50.321Z,18.52
2022-11-27T11:15:00.483Z,19.88
2022-11-27T11:16:18.440Z,16.98
2022-11-27T11:17:37.787Z,20.00
2022-11-27T11:18:46.329Z,19.02
2022-11-27T11:19:48.077Z,18.77
2022-11-27T11:20:56.353Z,19.52
2022-11-27T11:22:00.766Z,22.70
2022-11-27T11:23:02.586Z,17.20
2022-11-27T11:24:07.264Z,18.77
2022-11-27T11:25:18.328Z,18.63
2022-11-27T11:26:30.967Z,15.93
2022-11-27T11:27:32.930Z,17.55
2022-11-27T11:28:45.124Z,15.18
2022-11-27T11:29:46.728Z,16.98
2022-11-27T11:30:59.870Z,18.25
2022-11-27T11:32:14.787Z,16.45
2022-11-27T11:33:17.102Z,19.77
2022-11-27T11:34:25.773Z,15.13
2022-11-27T11:35:32.300Z,16.80
2022-11-27T11:36:35.557Z,13.80
2022-11-27T11:37:44.900Z,16.60
2022-11-27T11:38:47.904Z,17.35
2022-11-27T11:40:09.762Z,15.15
2022-11-27T11:41:18.086Z,19.33
2022-11-27T11:42:31.776Z,22.95
2022-11-27T11:43:36.471Z,18.27
2022-11-27T11:44:40.448Z,20.33
2022-11-27T11:45:48.954Z,12.57
2022-11-27T11:46:54.532Z,15.68
2022-11-27T11:48:00.117Z,12.32
2022-11-27T11:49:26.248Z,11.23
2022-11-27T11:50:36.765Z,13.10
2022-11-27T11:52:01.469Z,16.13
2022-11-27T11:53:18.377Z,10.30
2022-11-27T11:54:26.759Z,11.45
2022-11-27T11:55:39.872Z,9.38
2022-11-27T11:56:49.755Z,9.43
2022-11-27T11:58:21.348Z,7.97
2022-11-27T11:59:25.775Z,9.10
2022-11-27T12:00:58.416Z,8.10
2022-11-27T12:02:32.390Z,7.20
2022-11-27T12:03:58.724Z,6.72
2022-11-27T12:05:15.389Z,6.03
2022-11-27T12:06:34.520Z,6.65
2022-11-27T12:07:52.200Z,8.43
2022-11-27T12:09:09.398Z,6.95
2022-11-27T12:10:26.056Z,8.70
2022-11-27T12:11:39.885Z,7.40
2022-11-27T12:12:44.506Z,8.85
2022-11-27T12:14:03.872Z,12.82
2022-11-27T12:15:14.565Z,12.93
2022-11-27T12:16:35.857Z,9.02
2022-11-27T12:17:48.633Z,7.38
2022-11-27T12:19:08.864Z,9.63
2022-11-27T12:20:13.273Z,8.98
2022-11-27T12:21:38.788Z,10.60
2022-11-27T12:23:17.977Z,11.82
2022-11-27T12:24:34.511Z,7.28
2022-11-27T12:25:48.462Z,6.78
2022-11-27T12:27:16.529Z,6.07
2022-11-27T12:28:44.108Z,6.95
2022-11-27T12:29:55.878Z,6.50
2022-11-27T12:31:18.785Z,7.90
2022-11-27T12:32:35.335Z,6.82
2022-11-27T12:34:01.124Z,7.10
2022-11-27T12:35:26.936Z,8.27
2022-11-27T12:36:48.810Z,6.47
2022-11-27T12:38:16.668Z,6.15
2022-11-27T12:39:25.903Z,8.02
2022-11-27T12:41:03.263Z,14.77
2022-11-27T12:42:46.408Z,9.07
2022-11-27T12:43:52.280Z,5.28
2022-11-27T12:45:19.071Z,5.47
2022-11-27T12:46:42.630Z,4.95
2022-11-27T12:47:49.585Z,5.30
2022-11-27T12:48:56.189Z,4.57
2022-11-27T12:50:04.051Z,3.58
2022-11-27T12:51:13.986Z,5.05
2022-11-27T12:52:25.850Z,6.45
2022-11-27T12:53:43.057Z,5.10
2022-11-27T12:55:21.915Z,4.18
2022-11-27T12:56:33.084Z,3.90
2022-11-27T12:58:51.589Z,6.25
2022-11-27T13:00:00.954Z,6.75
2022-11-27T13:01:08.242Z,4.00
2022-11-27T13:02:09.925Z,3.53
2022-11-27T13:04:03.517Z,4.05
2022-11-27T13:05:15.208Z,3.92
2022-11-27T13:06:21.020Z,3.75
2022-11-27T13:07:40.279Z,3.53
2022-11-27T13:08:59.543Z,4.43
2022-11-27T13:10:11.702Z,3.28
2022-11-27T13:11:15.679Z,4.20
2022-11-27T13:12:28.601Z,5.13
2022-11-27T13:13:44.838Z,3.10
2022-11-27T13:14:55.226Z,3.83
2022-11-27T13:16:13.160Z,6.43
2022-11-27T13:17:18.340Z,5.93
2022-11-27T13:18:31.742Z,5.47
2022-11-27T13:19:33.448Z,4.65
2022-11-27T13:20:38.546Z,4.80
2022-11-27T13:21:41.551Z,5.78
2022-11-27T13:22:43.859Z,6.20
2022-11-27T13:23:45.619Z,4.68
2022-11-27T13:24:47.502Z,6.25
2022-11-27T13:25:55.642Z,3.60
2022-11-27T13:27:21.161Z,3.08
2022-11-27T13:28:41.509Z,4.10
2022-11-27T13:29:48.780Z,4.13
2022-11-27T13:30:53.419Z,2.95
2022-11-27T13:31:59.123Z,3.38
2022-11-27T13:33:02.341Z,3.80
2022-11-27T13:34:07.825Z,4.32
2022-11-27T13:35:42.760Z,3.20
2022-11-27T13:36:47.261Z,4.15
2022-11-27T13:37:55.152Z,4.35
2022-11-27T13:39:02.250Z,2.35
2022-11-27T13:40:24.098Z,3.05
2022-11-27T13:41:40.892Z,2.47
2022-11-27T13:42:45.776Z,9.10
2022-11-27T13:43:47.778Z,4.22
2022-11-27T13:45:03.266Z,3.75
2022-11-27T13:46:26.495Z,4.22
2022-11-27T13:47:36.282Z,5.20
2022-11-27T13:48:42.432Z,12.82
2022-11-27T13:49:45.457Z,5.60
2022-11-27T13:50:47.824Z,19.17
2022-11-27T13:51:49.514Z,20.85
2022-11-27T13:52:59.995Z,10.73
2022-11-27T13:54:12.362Z,6.28
2022-11-27T13:55:24.856Z,10.38
2022-11-27T13:56:32.414Z,16.98
2022-11-27T13:57:34.657Z,12.32
2022-11-27T13:58:41.419Z,12.73
2022-11-27T13:59:59.160Z,5.47
2022-11-27T14:01:22.150Z,6.07
2022-11-27T14:02:24.977Z,4.18
2022-11-27T14:03:28.480Z,2.90
2022-11-27T14:04:31.606Z,3.28
2022-11-27T14:05:42.162Z,2.85
2022-11-27T14:06:44.015Z,3.33
2022-11-27T14:07:49.523Z,3.88
2022-11-27T14:09:06.530Z,4.40
2022-11-27T14:10:18.386Z,4.65
2022-11-27T14:11:31.935Z,4.13
2022-11-27T14:12:34.392Z,7.97
2022-11-27T14:13:44.997Z,9.65
2022-11-27T14:15:01.150Z,9.15
2022-11-27T14:16:07.537Z,8.25
2022-11-27T14:17:26.991Z,6.20
2022-11-27T14:18:30.661Z,4.50
2022-11-27T14:19:36.936Z,4.97
2022-11-27T14:20:48.233Z,10.50
2022-11-27T14:21:50.288Z,13.05
2022-11-27T14:23:11.704Z,7.88
2022-11-27T14:24:30.127Z,7.15
2022-11-27T14:25:36.341Z,5.65
2022-11-27T14:26:41.607Z,8.35
2022-11-27T14:27:43.657Z,5.57
2022-11-27T14:28:50.779Z,6.85